Phoenix Sky Harbor International Airport
KPHX : rendu visible

Aérodrome :











RETROUVEZ-NOUS SUR...

 
LOGIN :

S'inscrire | Disclaimer

   EN    FR    IT 

 









Légende :    VFR   VFR Marginal   IFR   IFR Intensif   IFR Très Intensif
Visi : 
Plafond : 
>= 8 km
>= 3000ft
5 à 8 km
1000 à 3000 ft
1500m à 5 km
500 à 1000 ft
800 à 1500m
200 à 500 ft
< 800m
< 200 ft
Symboles :   Orages  Brouillard  Fortes neiges  Fortes précipitations  Vent > 20 kt






- Altitude de l'aérodrome : 1135 ft
- Code IATA : PHX


KPHX - Phoenix Sky Harbor International

DERNIER METAR :
  • 221651Z 09007KT 9SM -RA FEW015 BKN033 OVC045 14/13 A3000 RMK AO2 SLP149 P0009 T01440128

METARs EXPIRÉS :
  • 221622Z 04009KT 3SM -RA BR SCT022 BKN039 OVC048 14/13 A3001 RMK AO2 P0006 T01390128
  • 221613Z 06010KT 2 1/2SM +RA BR SCT024 BKN032 OVC050 14/13 A3000 RMK AO2 P0004 T01390128
  • 221551Z 06009KT 3SM RA BR SCT024 BKN036 OVC050 13/12 A3001 RMK AO2 SLP153 P0014 T01330122
  • 221537Z 07010KT 3SM RA BR FEW020 BKN030 OVC050 13/12 A3001 RMK AO2 P0012 T01330122
  • 221524Z 09007KT 2SM +RA BR FEW020 BKN030 OVC050 13/13 A3001 RMK AO2 P0006 T01330128
  • 221517Z 09010KT 3SM -RA BR FEW020 BKN027 BKN040 13/12 A3000 RMK AO2 P0006 T01330122
  • 221451Z 10010KT 2 1/2SM RA BR BKN027 BKN040 OVC095 13/12 A3000 RMK AO2 SLP151 P0016 60045 T01330122 58009
  • 221436Z 09013KT 6SM -RA BR SCT028 BKN045 OVC095 13/12 A3000 RMK AO2 P0013 T01330122

TAF KPHX
Valide du 22 à 15h jusqu'au 23 à 18h UTC


221456Z 2215/2318 10010KT 6SM -RA BR SCT025 OVC040
TEMPO 2215/2219 2SM RA BR BKN025 OVC040
FM221900 18012G21KT P6SM -SHRA SCT030 BKN050 BKN150
FM230100 24014G22KT P6SM VCSH SCT040 BKN080
FM230400 23010KT P6SM VCSH SCT040 BKN080
FM230800 23007KT P6SM SCT050 BKN150



MET'MAP, la Météo Aéronautique d'un coup d'oeil ! - Copyright ORBIFLY Décembre 2007 - Disclaimer

ORBIFLY MET'MAP TEAM :

Programmation & Développement : Alexandra Zaïnal
Sur une idée originale de : Baudouin d'Aumeries
Assistance à la programmation : Marc-Olivier Méhu
Soutien technique & logistique : Manuel Goepfert

Contact : metmap@orbifly.com




SOURCES & CREDITS :

   NOAA       Earth
Advisory